Time;durP1;ratioP1;P1;durP2;ratioP2;P2;SDS_P1;SDS_P2;PMS_P1;PMS_P2;Temp;Humidity;BMP_temperature;BMP_pressure;BME280_temperature;BME280_humidity;BME280_pressure;Samples;Min_cycle;Max_cycle;Signal;HPM_P1;HPM_P2
2023/10/14 00:01:12;;;;;;;0.10;0.10;;;14.30;99.90;;;;;;5069918;28;20414;-75
2023/10/14 00:03:42;;;;;;;0.10;0.10;;;14.30;99.90;;;;;;5046856;28;20041;-76
2023/10/14 00:06:12;;;;;;;0.17;0.17;;;14.30;99.90;;;;;;5037421;28;20083;-75
2023/10/14 00:08:47;;;;;;;0.15;0.15;;;14.10;99.90;;;;;;5045886;28;20049;-75
2023/10/14 00:11:17;;;;;;;0.20;0.20;;;14.10;99.90;;;;;;5036314;28;20628;-75
2023/10/14 00:13:49;;;;;;;0.20;0.20;;;14.00;99.90;;;;;;5052148;28;20052;-75
2023/10/14 00:19:03;;;;;;;0.10;0.10;;;14.00;99.90;;;;;;5042609;28;20118;-76
2023/10/14 00:21:28;;;;;;;0.10;0.10;;;13.90;99.90;;;;;;5067912;28;20619;-76
2023/10/14 00:23:57;;;;;;;0.10;0.10;;;13.80;99.90;;;;;;5050060;28;20079;-75
2023/10/14 00:26:24;;;;;;;0.10;0.10;;;13.80;99.90;;;;;;5057477;28;20504;-75
2023/10/14 00:31:34;;;;;;;0.10;0.10;;;13.80;99.90;;;;;;5052531;28;20151;-76
2023/10/14 00:34:00;;;;;;;0.20;0.20;;;13.70;99.90;;;;;;5048383;28;20067;-75
2023/10/14 00:36:31;;;;;;;0.10;0.10;;;13.70;99.90;;;;;;5057809;28;20036;-76
2023/10/14 00:39:00;;;;;;;0.20;0.20;;;13.70;99.90;;;;;;5065414;28;20729;-76
2023/10/14 00:41:27;;;;;;;0.15;0.15;;;13.60;99.90;;;;;;5049341;28;20098;-76
2023/10/14 00:43:56;;;;;;;0.17;0.17;;;13.60;99.90;;;;;;5033062;28;20077;-75
2023/10/14 00:46:23;;;;;;;0.10;0.10;;;13.60;99.90;;;;;;5036242;28;20048;-75
2023/10/14 00:48:58;;;;;;;0.20;0.20;;;13.50;99.90;;;;;;5041505;28;20037;-75
2023/10/14 00:51:26;;;;;;;0.17;0.17;;;13.50;99.90;;;;;;5044237;28;20080;-75
2023/10/14 00:53:52;;;;;;;0.10;0.10;;;13.40;99.90;;;;;;5063777;28;20891;-75
2023/10/14 00:56:27;;;;;;;0.20;0.20;;;13.30;99.90;;;;;;5047593;28;20743;-75
2023/10/14 00:58:58;;;;;;;0.10;0.10;;;13.30;99.90;;;;;;5048894;28;20452;-75
2023/10/14 01:01:28;;;;;;;0.13;0.13;;;13.30;99.90;;;;;;5051377;28;20044;-75
2023/10/14 01:04:03;;;;;;;0.20;0.20;;;13.20;99.90;;;;;;5051430;28;20500;-75
2023/10/14 01:06:39;;;;;;;0.20;0.20;;;13.20;99.90;;;;;;5049105;28;22099;-75
2023/10/14 01:09:10;;;;;;;0.10;0.10;;;13.10;99.90;;;;;;5041905;28;20575;-75
2023/10/14 01:11:41;;;;;;;0.13;0.13;;;13.10;99.90;;;;;;5049337;28;20131;-75
2023/10/14 01:14:08;;;;;;;0.13;0.13;;;13.00;99.90;;;;;;5048606;28;20052;-75
2023/10/14 01:16:37;;;;;;;0.10;0.10;;;12.90;99.90;;;;;;5048665;28;20106;-75
2023/10/14 01:19:03;;;;;;;0.10;0.10;;;12.80;99.90;;;;;;5047674;28;20071;-75
2023/10/14 01:21:28;;;;;;;0.10;0.10;;;12.80;99.90;;;;;;5052178;28;20075;-75
2023/10/14 01:23:58;;;;;;;0.10;0.10;;;12.80;99.90;;;;;;5060383;28;20065;-75
2023/10/14 01:26:25;;;;;;;0.10;0.10;;;12.90;99.90;;;;;;5043364;28;20052;-75
2023/10/14 01:28:59;;;;;;;0.10;0.10;;;13.20;99.90;;;;;;5049668;28;20049;-75
2023/10/14 01:33:56;;;;;;;0.20;0.20;;;13.00;99.90;;;;;;5057703;28;20082;-75
2023/10/14 01:36:32;;;;;;;0.10;0.10;;;12.50;99.90;;;;;;5047181;28;20057;-75
2023/10/14 01:39:00;;;;;;;0.10;0.10;;;12.40;99.90;;;;;;5035489;28;20048;-76
2023/10/14 01:41:30;;;;;;;0.20;0.20;;;12.30;99.90;;;;;;5047249;28;20480;-75
2023/10/14 01:44:05;;;;;;;0.20;0.20;;;12.20;99.90;;;;;;5043339;28;20044;-76
2023/10/14 01:46:37;;;;;;;0.10;0.10;;;12.20;99.90;;;;;;5038779;28;20492;-75
2023/10/14 01:49:10;;;;;;;0.10;0.10;;;12.10;99.90;;;;;;5047775;28;20155;-75
2023/10/14 01:51:36;;;;;;;0.17;0.17;;;12.10;99.90;;;;;;5044467;28;20491;-75
2023/10/14 01:54:03;;;;;;;0.17;0.17;;;12.10;99.90;;;;;;5042268;28;20033;-76
2023/10/14 01:56:30;;;;;;;0.10;0.10;;;12.00;99.90;;;;;;5047555;28;20091;-76
2023/10/14 01:58:59;;;;;;;0.20;0.20;;;12.00;99.90;;;;;;5045514;28;20447;-75
2023/10/14 02:01:27;;;;;;;0.10;0.10;;;11.90;99.90;;;;;;5045350;28;20429;-75
2023/10/14 02:03:54;;;;;;;0.10;0.10;;;11.90;99.90;;;;;;5037194;28;20392;-75
2023/10/14 02:06:28;;;;;;;0.10;0.10;;;11.80;99.90;;;;;;5045395;28;20049;-75
2023/10/14 02:08:54;;;;;;;0.13;0.13;;;11.90;99.90;;;;;;5040308;28;21759;-75
2023/10/14 02:11:24;;;;;;;0.20;0.20;;;11.80;99.90;;;;;;5050776;28;20044;-75
2023/10/14 02:13:51;;;;;;;0.15;0.15;;;11.90;99.90;;;;;;5041656;28;20088;-75
2023/10/14 02:16:29;;;;;;;0.10;0.10;;;11.80;99.90;;;;;;5036582;28;20459;-75
2023/10/14 02:19:17;;;;;;;0.10;0.10;;;11.70;99.90;;;;;;5041134;28;20045;-75
2023/10/14 02:21:43;;;;;;;0.10;0.10;;;11.70;99.90;;;;;;5046723;28;20045;-75
2023/10/14 02:24:10;;;;;;;0.10;0.10;;;11.70;99.90;;;;;;5042783;28;20047;-75
2023/10/14 02:26:38;;;;;;;0.10;0.10;;;11.70;99.90;;;;;;5036415;28;20119;-75
2023/10/14 02:29:08;;;;;;;0.10;0.10;;;11.60;99.90;;;;;;5044633;28;20549;-75
2023/10/14 02:31:36;;;;;;;0.10;0.10;;;11.60;99.90;;;;;;5050392;28;20044;-75
2023/10/14 02:34:06;;;;;;;0.10;0.10;;;11.50;99.90;;;;;;5042679;28;20040;-75
2023/10/14 02:36:50;;;;;;;0.10;0.10;;;11.50;99.90;;;;;;5039296;28;20044;-75
2023/10/14 02:39:27;;;;;;;0.10;0.10;;;11.50;99.90;;;;;;5042826;28;20076;-75
2023/10/14 02:42:00;;;;;;;0.20;0.20;;;11.50;99.90;;;;;;5041265;28;20049;-74
2023/10/14 02:44:43;;;;;;;0.10;0.10;;;11.50;99.90;;;;;;5037604;28;20149;-75
2023/10/14 02:47:09;;;;;;;0.20;0.20;;;11.40;99.90;;;;;;5039281;28;20079;-75
2023/10/14 02:49:42;;;;;;;0.10;0.10;;;11.30;99.90;;;;;;5047655;28;20073;-75
2023/10/14 02:52:12;;;;;;;0.10;0.10;;;11.40;99.90;;;;;;5047913;28;20499;-75
2023/10/14 02:54:42;;;;;;;0.10;0.10;;;11.30;99.90;;;;;;5070943;28;20052;-75
2023/10/14 02:59:46;;;;;;;0.10;0.10;;;11.30;99.90;;;;;;5053658;28;20453;-75
2023/10/14 03:02:25;;;;;;;0.10;0.10;;;11.30;99.90;;;;;;5052393;28;20142;-75
2023/10/14 03:07:29;;;;;;;0.10;0.10;;;11.20;99.90;;;;;;5043142;28;20052;-75
2023/10/14 03:12:42;;;;;;;0.10;0.10;;;11.20;99.90;;;;;;5052092;28;20492;-75
2023/10/14 03:15:19;;;;;;;0.10;0.10;;;11.20;99.90;;;;;;5047928;28;20780;-75
2023/10/14 03:18:07;;;;;;;0.10;0.10;;;11.20;99.90;;;;;;5051066;28;20044;-74
2023/10/14 03:20:36;;;;;;;0.10;0.10;;;11.20;99.90;;;;;;5053982;28;20570;-75
2023/10/14 03:23:12;;;;;;;0.10;0.10;;;11.20;99.90;;;;;;5040538;28;20515;-75
2023/10/14 03:25:41;;;;;;;0.17;0.17;;;11.10;99.90;;;;;;5051023;28;20253;-74
2023/10/14 03:28:14;;;;;;;0.20;0.20;;;11.10;99.90;;;;;;5042885;28;20151;-74
2023/10/14 03:30:45;;;;;;;0.10;0.10;;;11.10;99.90;;;;;;5049547;28;20053;-74
2023/10/14 03:33:19;;;;;;;0.10;0.10;;;11.10;99.90;;;;;;5048756;28;20037;-75
2023/10/14 03:35:56;;;;;;;0.10;0.10;;;11.10;99.90;;;;;;5051017;28;20051;-75
2023/10/14 03:38:33;;;;;;;0.10;0.10;;;11.10;99.90;;;;;;5046136;28;20049;-74
2023/10/14 03:41:19;;;;;;;0.10;0.10;;;11.00;99.90;;;;;;5050754;28;20041;-75
2023/10/14 03:46:16;;;;;;;0.10;0.10;;;;;;;;;;5048525;28;20186;-74
2023/10/14 03:48:48;;;;;;;0.10;0.10;;;11.00;99.90;;;;;;5052034;28;20052;-74
2023/10/14 03:53:52;;;;;;;0.10;0.10;;;11.00;99.90;;;;;;5038154;28;20056;-74
2023/10/14 03:56:21;;;;;;;0.10;0.10;;;10.90;99.90;;;;;;5052709;28;20051;-74
2023/10/14 03:58:48;;;;;;;0.13;0.13;;;10.90;99.90;;;;;;5049256;28;20045;-74
2023/10/14 04:01:22;;;;;;;0.10;0.10;;;10.90;99.90;;;;;;5050314;28;20041;-74
2023/10/14 04:03:51;;;;;;;0.10;0.10;;;10.90;99.90;;;;;;5039085;28;20389;-75
2023/10/14 04:06:19;;;;;;;0.10;0.10;;;11.00;99.90;;;;;;5044154;28;20044;-74
2023/10/14 04:08:47;;;;;;;0.10;0.10;;;11.00;99.90;;;;;;5047605;28;20051;-74
2023/10/14 04:11:28;;;;;;;0.10;0.10;;;11.00;99.90;;;;;;5056857;28;20045;-74
2023/10/14 04:17:08;;;;;;;0.10;0.10;;;11.00;99.90;;;;;;5024477;28;20730;-74
2023/10/14 04:19:44;;;;;;;0.10;0.10;;;10.90;99.90;;;;;;5039447;28;20092;-74
2023/10/14 04:24:53;;;;;;;0.10;0.10;;;11.00;99.90;;;;;;5032248;28;20115;-74
2023/10/14 04:30:20;;;;;;;;;;;11.00;99.90;;;;;;5013394;28;20624;-74
2023/10/14 04:35:23;;;;;;;0.10;0.10;;;11.00;99.90;;;;;;5029451;28;20103;-74
2023/10/14 04:37:57;;;;;;;0.15;0.15;;;10.90;99.90;;;;;;5036670;28;20041;-74
2023/10/14 04:51:09;;;;;;;0.10;0.10;;;11.20;99.90;;;;;;5047138;28;20527;-73
2023/10/14 04:53:36;;;;;;;0.10;0.10;;;11.10;99.90;;;;;;5042063;28;20107;-74
2023/10/14 04:56:08;;;;;;;0.10;0.10;;;11.10;99.90;;;;;;5048074;28;20395;-74
2023/10/14 04:58:34;;;;;;;0.10;0.10;;;11.00;99.90;;;;;;5047403;28;20076;-74
2023/10/14 05:01:09;;;;;;;0.10;0.10;;;11.10;99.90;;;;;;5038972;28;20045;-74
2023/10/14 05:03:35;;;;;;;0.20;0.20;;;11.10;99.90;;;;;;5035553;28;20110;-74
2023/10/14 05:06:14;;;;;;;0.10;0.10;;;11.00;99.90;;;;;;5042724;28;20042;-74
2023/10/14 05:08:51;;;;;;;0.10;0.10;;;11.00;99.90;;;;;;5043133;28;20049;-74
2023/10/14 05:11:22;;;;;;;0.10;0.10;;;11.00;99.90;;;;;;5047362;28;20049;-74
2023/10/14 05:14:08;;;;;;;0.10;0.10;;;11.00;99.90;;;;;;5047382;28;20056;-74
2023/10/14 05:16:53;;;;;;;0.10;0.10;;;11.00;99.90;;;;;;5043263;28;20106;-74
2023/10/14 05:19:41;;;;;;;0.20;0.20;;;10.90;99.90;;;;;;5040086;28;20656;-74
2023/10/14 05:22:11;;;;;;;0.10;0.10;;;10.90;99.90;;;;;;5042471;28;20053;-74
2023/10/14 05:24:45;;;;;;;0.13;0.13;;;10.90;99.90;;;;;;5044292;28;20076;-74
2023/10/14 05:27:11;;;;;;;0.20;0.20;;;11.00;99.90;;;;;;5037805;28;20711;-74
2023/10/14 05:29:37;;;;;;;0.10;0.10;;;10.90;99.90;;;;;;5046492;28;20548;-74
2023/10/14 05:32:15;;;;;;;0.10;0.10;;;10.80;99.90;;;;;;5029575;28;20116;-74
2023/10/14 05:34:44;;;;;;;0.10;0.10;;;10.80;99.90;;;;;;5046386;28;20041;-74
2023/10/14 05:37:11;;;;;;;0.10;0.10;;;10.80;99.90;;;;;;5040458;28;20473;-75
2023/10/14 05:39:41;;;;;;;0.10;0.10;;;10.80;99.90;;;;;;5048141;28;20091;-74
2023/10/14 05:42:15;;;;;;;0.10;0.10;;;10.80;99.90;;;;;;5048506;28;20067;-74
2023/10/14 05:44:47;;;;;;;0.20;0.20;;;10.80;99.90;;;;;;5045037;28;20045;-74
2023/10/14 05:47:14;;;;;;;0.10;0.10;;;10.70;99.90;;;;;;5043865;28;20045;-75
2023/10/14 05:49:39;;;;;;;0.15;0.15;;;10.70;99.90;;;;;;5040599;28;20131;-74
2023/10/14 05:52:05;;;;;;;0.10;0.10;;;10.70;99.90;;;;;;5045836;28;20044;-74
2023/10/14 05:54:31;;;;;;;0.10;0.10;;;10.70;99.90;;;;;;5043940;28;20481;-74
2023/10/14 05:56:56;;;;;;;0.10;0.10;;;10.70;99.90;;;;;;5043600;28;20053;-74
2023/10/14 05:59:22;;;;;;;0.15;0.15;;;10.70;99.90;;;;;;5040591;28;20085;-74
2023/10/14 06:01:48;;;;;;;0.10;0.10;;;10.70;99.90;;;;;;5042392;28;20068;-74
2023/10/14 06:04:15;;;;;;;0.10;0.10;;;10.70;99.90;;;;;;5041850;28;20041;-74
2023/10/14 06:06:41;;;;;;;0.10;0.10;;;10.70;99.90;;;;;;5041691;28;20140;-74
2023/10/14 06:09:09;;;;;;;0.10;0.10;;;10.70;99.90;;;;;;5041044;28;20528;-74
2023/10/14 06:11:35;;;;;;;0.10;0.10;;;10.70;99.90;;;;;;5040529;28;20048;-74
2023/10/14 06:14:03;;;;;;;0.10;0.10;;;10.70;99.90;;;;;;5041997;28;20052;-74
2023/10/14 06:16:31;;;;;;;0.10;0.10;;;10.80;99.90;;;;;;5047100;28;20560;-74
2023/10/14 06:18:57;;;;;;;0.10;0.10;;;10.70;99.90;;;;;;5042582;28;20064;-74
2023/10/14 06:21:33;;;;;;;0.10;0.10;;;10.70;99.90;;;;;;5037191;28;20042;-73
2023/10/14 06:24:00;;;;;;;0.10;0.10;;;10.70;99.90;;;;;;5047904;28;20055;-74
2023/10/14 06:26:26;;;;;;;0.10;0.10;;;10.70;99.90;;;;;;5051766;28;20132;-74
2023/10/14 06:28:56;;;;;;;0.10;0.10;;;10.70;99.90;;;;;;5050699;28;20040;-74
2023/10/14 06:31:22;;;;;;;0.10;0.10;;;10.70;99.90;;;;;;5044555;28;20067;-75
2023/10/14 06:33:48;;;;;;;0.10;0.10;;;10.70;99.90;;;;;;5042257;28;20055;-74
2023/10/14 06:36:14;;;;;;;0.10;0.10;;;10.70;99.90;;;;;;5037614;28;20041;-74
2023/10/14 06:38:46;;;;;;;0.10;0.10;;;10.70;99.90;;;;;;5042969;28;20045;-74
2023/10/14 06:41:13;;;;;;;0.10;0.10;;;10.70;99.90;;;;;;5041626;28;20045;-75
2023/10/14 06:43:39;;;;;;;0.17;0.17;;;10.70;99.90;;;;;;5043164;28;20136;-74
2023/10/14 06:46:05;;;;;;;0.10;0.10;;;10.70;99.90;;;;;;5044448;28;20136;-75
2023/10/14 06:48:34;;;;;;;0.13;0.13;;;10.70;99.90;;;;;;5043538;28;20518;-74
2023/10/14 06:51:01;;;;;;;0.10;0.10;;;10.70;99.90;;;;;;5041513;28;20056;-74
2023/10/14 06:53:30;;;;;;;0.10;0.10;;;10.70;99.90;;;;;;5045626;28;20075;-74
2023/10/14 06:55:58;;;;;;;0.10;0.10;;;10.70;99.90;;;;;;5044977;28;20068;-74
2023/10/14 06:58:23;;;;;;;0.10;0.10;;;10.70;99.90;;;;;;5043979;28;20083;-74
2023/10/14 07:00:49;;;;;;;0.10;0.10;;;10.70;99.90;;;;;;5042210;28;20071;-75
2023/10/14 07:03:16;;;;;;;0.10;0.10;;;10.80;99.90;;;;;;5042135;28;20048;-75
2023/10/14 07:08:21;;;;;;;0.20;0.20;;;10.80;99.90;;;;;;5050344;28;20080;-74
2023/10/14 07:10:52;;;;;;;0.10;0.10;;;10.90;99.90;;;;;;5052389;28;20049;-75
2023/10/14 07:13:23;;;;;;;0.10;0.10;;;10.90;99.90;;;;;;5048008;28;20703;-74
2023/10/14 07:15:51;;;;;;;0.10;0.10;;;10.80;99.90;;;;;;5047218;28;20123;-74
2023/10/14 07:18:23;;;;;;;0.10;0.10;;;11.00;99.90;;;;;;5063519;28;20041;-75
2023/10/14 07:21:02;;;;;;;0.20;0.20;;;11.00;99.90;;;;;;5067246;28;20121;-75
2023/10/14 07:23:34;;;;;;;0.10;0.10;;;11.00;99.90;;;;;;5051209;28;20051;-75
2023/10/14 07:26:07;;;;;;;0.10;0.10;;;11.00;99.90;;;;;;5053178;28;20037;-74
2023/10/14 07:28:35;;;;;;;0.10;0.10;;;11.00;99.90;;;;;;5049399;28;20041;-74
2023/10/14 07:31:00;;;;;;;0.10;0.10;;;11.40;99.90;;;;;;5044058;28;20070;-75
2023/10/14 07:33:26;;;;;;;0.10;0.10;;;11.20;99.90;;;;;;5071631;28;20044;-75
2023/10/14 07:35:51;;;;;;;0.10;0.10;;;11.20;99.90;;;;;;5052068;28;20041;-75
2023/10/14 07:38:17;;;;;;;0.10;0.10;;;11.20;99.90;;;;;;5060018;28;20048;-74
2023/10/14 07:40:43;;;;;;;0.10;0.10;;;11.30;99.90;;;;;;5067854;28;20033;-74
2023/10/14 07:43:11;;;;;;;0.10;0.10;;;11.30;99.90;;;;;;5046126;28;20041;-74
2023/10/14 07:45:42;;;;;;;0.10;0.10;;;11.40;99.90;;;;;;5047838;28;20126;-71
2023/10/14 07:48:10;;;;;;;0.20;0.20;;;11.50;99.90;;;;;;5046058;28;20404;-71
2023/10/14 07:50:37;;;;;;;0.10;0.10;;;11.50;99.90;;;;;;5058192;28;20052;-71
2023/10/14 07:53:13;;;;;;;0.20;0.20;;;11.60;99.90;;;;;;5042858;28;20536;-72
2023/10/14 07:55:49;;;;;;;0.10;0.10;;;11.60;99.90;;;;;;5045082;28;20059;-72
2023/10/14 07:58:18;;;;;;;0.10;0.10;;;11.60;99.90;;;;;;5043408;28;20124;-72
2023/10/14 08:00:52;;;;;;;0.10;0.10;;;11.70;99.90;;;;;;5046036;28;20078;-72
2023/10/14 08:03:23;;;;;;;0.10;0.10;;;11.70;99.90;;;;;;5047162;28;20624;-77
2023/10/14 08:05:53;;;;;;;0.10;0.10;;;11.80;99.90;;;;;;5042164;28;20049;-73
2023/10/14 08:08:20;;;;;;;0.10;0.10;;;11.90;99.90;;;;;;5047748;28;20056;-72
2023/10/14 08:10:49;;;;;;;0.10;0.10;;;11.90;99.90;;;;;;5067908;28;20506;-72
2023/10/14 08:13:18;;;;;;;0.10;0.10;;;11.90;99.90;;;;;;5052511;28;20045;-72
2023/10/14 08:15:44;;;;;;;0.10;0.10;;;11.90;99.90;;;;;;5067785;28;20048;-72
2023/10/14 08:18:12;;;;;;;0.10;0.10;;;11.90;99.90;;;;;;5032183;28;20049;-72
2023/10/14 08:20:42;;;;;;;0.10;0.10;;;12.00;99.90;;;;;;5031726;28;20049;-72
2023/10/14 08:23:10;;;;;;;0.10;0.10;;;12.00;99.90;;;;;;5048510;28;20079;-72
2023/10/14 08:25:38;;;;;;;0.10;0.10;;;12.10;99.90;;;;;;5050849;28;20292;-72
2023/10/14 08:28:05;;;;;;;0.10;0.10;;;12.00;99.90;;;;;;5032176;28;20491;-73
2023/10/14 08:30:34;;;;;;;0.10;0.10;;;12.10;99.90;;;;;;5033482;28;20110;-72
2023/10/14 08:33:03;;;;;;;0.15;0.15;;;12.20;99.90;;;;;;5035284;28;20495;-72
2023/10/14 08:35:29;;;;;;;0.10;0.10;;;12.20;99.90;;;;;;5031216;28;20072;-74
2023/10/14 08:37:57;;;;;;;0.10;0.10;;;12.20;99.90;;;;;;5036452;28;20450;-76
2023/10/14 08:40:26;;;;;;;0.10;0.10;;;12.20;99.90;;;;;;5041580;28;20036;-75
2023/10/14 08:43:06;;;;;;;0.10;0.10;;;12.30;99.90;;;;;;5069921;28;20052;-74
2023/10/14 08:45:38;;;;;;;0.10;0.10;;;12.30;99.90;;;;;;5051423;28;20490;-74
2023/10/14 08:48:11;;;;;;;0.10;0.10;;;12.40;99.90;;;;;;5048586;28;20063;-74
2023/10/14 08:50:39;;;;;;;0.10;0.10;;;12.40;99.90;;;;;;5037617;28;20570;-74
2023/10/14 08:53:15;;;;;;;0.20;0.20;;;12.50;99.90;;;;;;5065639;28;20094;-75
2023/10/14 08:55:46;;;;;;;0.15;0.15;;;12.40;99.90;;;;;;5046851;28;20551;-74
2023/10/14 08:58:13;;;;;;;0.20;0.20;;;12.60;99.90;;;;;;5049764;28;20052;-75
2023/10/14 09:00:40;;;;;;;0.10;0.10;;;12.60;99.90;;;;;;5035846;28;20091;-74
2023/10/14 09:03:09;;;;;;;0.10;0.10;;;12.60;99.90;;;;;;5032352;28;20365;-74
2023/10/14 09:05:40;;;;;;;0.10;0.10;;;12.70;99.90;;;;;;5034893;28;20119;-73
2023/10/14 09:08:10;;;;;;;0.13;0.13;;;12.70;99.90;;;;;;5065880;28;20059;-72
2023/10/14 09:10:39;;;;;;;0.10;0.10;;;12.70;99.90;;;;;;5067290;28;20388;-72
2023/10/14 09:13:10;;;;;;;0.17;0.17;;;12.80;99.90;;;;;;5050588;28;20567;-74
2023/10/14 09:15:39;;;;;;;0.10;0.10;;;12.90;99.90;;;;;;5043089;28;20048;-75
2023/10/14 09:18:11;;;;;;;0.10;0.10;;;13.00;99.90;;;;;;5052063;28;20076;-74
2023/10/14 09:20:39;;;;;;;0.10;0.10;;;13.00;99.90;;;;;;5048791;28;20036;-77
2023/10/14 09:23:14;;;;;;;0.10;0.10;;;13.10;99.90;;;;;;5059227;28;20509;-75
2023/10/14 09:25:57;;;;;;;0.10;0.10;;;13.20;99.90;;;;;;5060316;28;20070;-76
2023/10/14 09:28:35;;;;;;;0.10;0.10;;;13.30;99.90;;;;;;5047182;28;20373;-75
2023/10/14 09:31:08;;;;;;;0.10;0.10;;;13.20;99.90;;;;;;5044132;28;20090;-76
2023/10/14 09:33:44;;;;;;;0.10;0.10;;;13.10;99.90;;;;;;5036206;28;20075;-74
2023/10/14 09:36:14;;;;;;;0.10;0.10;;;12.90;99.90;;;;;;5036650;28;20062;-75
2023/10/14 09:38:41;;;;;;;0.10;0.10;;;12.90;99.90;;;;;;5046670;28;20450;-75
2023/10/14 09:41:10;;;;;;;0.10;0.10;;;12.60;99.90;;;;;;5060301;28;20063;-73
2023/10/14 09:43:41;;;;;;;0.10;0.10;;;12.50;99.90;;;;;;5047105;28;20051;-74
2023/10/14 09:46:16;;;;;;;0.10;0.10;;;12.50;99.90;;;;;;5036985;28;20044;-74
2023/10/14 09:48:45;;;;;;;0.10;0.10;;;12.50;99.90;;;;;;5043962;28;20053;-79
2023/10/14 09:51:14;;;;;;;0.20;0.20;;;12.40;99.90;;;;;;5045725;28;20048;-73
2023/10/14 09:53:40;;;;;;;0.10;0.10;;;12.50;99.90;;;;;;5066262;28;20086;-74
2023/10/14 09:56:08;;;;;;;0.10;0.10;;;12.50;99.90;;;;;;5043390;28;20040;-73
2023/10/14 09:58:37;;;;;;;0.10;0.10;;;12.70;99.90;;;;;;5045835;28;20083;-73
2023/10/14 10:01:04;;;;;;;0.10;0.10;;;12.70;99.90;;;;;;5049704;28;20573;-73
2023/10/14 10:03:35;;;;;;;0.10;0.10;;;12.90;99.90;;;;;;5067034;28;20037;-73
2023/10/14 10:06:06;;;;;;;0.20;0.20;;;12.90;99.90;;;;;;5060678;28;20047;-73
2023/10/14 10:08:32;;;;;;;0.10;0.10;;;13.00;99.90;;;;;;5048256;28;20094;-74
2023/10/14 10:10:59;;;;;;;0.10;0.10;;;13.00;99.90;;;;;;5043105;28;20454;-75
2023/10/14 10:13:29;;;;;;;0.10;0.10;;;12.90;99.90;;;;;;5043314;28;20048;-73
2023/10/14 10:16:03;;;;;;;0.10;0.10;;;12.80;99.90;;;;;;5032187;28;20052;-74
2023/10/14 10:18:58;;;;;;;0.10;0.10;;;12.80;99.90;;;;;;5055753;28;20084;-74
2023/10/14 10:21:34;;;;;;;0.15;0.15;;;12.60;99.90;;;;;;5048412;28;20052;-73
2023/10/14 10:24:23;;;;;;;0.10;0.10;;;12.60;99.90;;;;;;5045658;28;20048;-74
2023/10/14 10:27:04;;;;;;;0.10;0.10;;;12.40;99.90;;;;;;5042835;28;20508;-74
2023/10/14 10:29:41;;;;;;;0.10;0.10;;;12.50;99.90;;;;;;5051484;28;20040;-73
2023/10/14 10:32:11;;;;;;;0.10;0.10;;;12.50;99.90;;;;;;5045959;28;20049;-74
2023/10/14 10:35:05;;;;;;;0.10;0.10;;;12.60;99.90;;;;;;5053484;28;20124;-73
2023/10/14 10:37:41;;;;;;;0.13;0.13;;;12.70;99.90;;;;;;5045451;28;20045;-74
2023/10/14 10:40:11;;;;;;;0.10;0.10;;;12.90;99.90;;;;;;5039543;28;20059;-74
2023/10/14 10:42:39;;;;;;;0.10;0.10;;;13.10;99.90;;;;;;5041762;28;20073;-74
2023/10/14 10:45:14;;;;;;;0.10;0.10;;;13.00;99.90;;;;;;5040112;28;20040;-73
2023/10/14 10:48:07;;;;;;;0.10;0.10;;;13.20;99.90;;;;;;5050563;28;20123;-73
2023/10/14 10:50:35;;;;;;;0.10;0.10;;;13.40;99.90;;;;;;5050149;28;20051;-74
2023/10/14 10:53:10;;;;;;;0.20;0.20;;;13.40;99.90;;;;;;5047285;28;20044;-74
2023/10/14 10:55:41;;;;;;;0.10;0.10;;;13.50;99.90;;;;;;5064028;28;20045;-74
2023/10/14 10:58:14;;;;;;;0.10;0.10;;;13.60;99.90;;;;;;5046912;28;20098;-74
2023/10/14 11:00:45;;;;;;;0.10;0.10;;;13.90;99.90;;;;;;5048013;28;20041;-73
2023/10/14 11:03:15;;;;;;;0.10;0.10;;;13.90;99.90;;;;;;5065197;28;20114;-74
2023/10/14 11:05:46;;;;;;;0.10;0.10;;;13.90;99.90;;;;;;5050004;28;20490;-73
2023/10/14 11:08:15;;;;;;;0.10;0.10;;;13.80;99.90;;;;;;5051871;28;20052;-73
2023/10/14 11:10:45;;;;;;;0.10;0.10;;;13.70;99.90;;;;;;5054128;28;20048;-74
2023/10/14 11:13:13;;;;;;;0.10;0.10;;;13.50;99.90;;;;;;5046274;28;20048;-74
2023/10/14 11:15:43;;;;;;;0.10;0.10;;;13.40;99.90;;;;;;5053087;28;20044;-76
2023/10/14 11:18:10;;;;;;;0.10;0.10;;;13.20;99.90;;;;;;5048266;28;20747;-74
2023/10/14 11:20:41;;;;;;;0.15;0.15;;;13.10;99.90;;;;;;5041856;28;20037;-73
2023/10/14 11:23:10;;;;;;;0.20;0.20;;;13.20;99.90;;;;;;5040287;28;20040;-73
2023/10/14 11:25:44;;;;;;;0.10;0.10;;;13.30;99.90;;;;;;5052192;28;20044;-74
2023/10/14 11:28:11;;;;;;;0.10;0.10;;;13.40;99.90;;;;;;5046751;28;20466;-73
2023/10/14 11:30:47;;;;;;;0.10;0.10;;;13.60;99.90;;;;;;5047171;28;20127;-73
2023/10/14 11:33:17;;;;;;;0.10;0.10;;;13.60;99.90;;;;;;5052079;28;20040;-73
2023/10/14 11:35:43;;;;;;;0.10;0.10;;;13.60;99.90;;;;;;5072158;28;20052;-75
2023/10/14 11:38:13;;;;;;;0.10;0.10;;;13.50;99.90;;;;;;5047307;28;20131;-74
2023/10/14 11:40:49;;;;;;;0.20;0.20;;;13.60;99.90;;;;;;5045838;28;20079;-74
2023/10/14 11:43:16;;;;;;;0.10;0.10;;;13.70;99.90;;;;;;5051243;28;20413;-74
2023/10/14 11:45:45;;;;;;;0.10;0.10;;;13.80;99.90;;;;;;5050254;28;20121;-74
2023/10/14 11:48:27;;;;;;;0.10;0.10;;;13.90;99.90;;;;;;5050555;28;20037;-74
2023/10/14 11:51:02;;;;;;;0.20;0.20;;;13.80;99.90;;;;;;5044926;28;20083;-73
2023/10/14 11:53:33;;;;;;;0.10;0.10;;;14.00;99.90;;;;;;5052123;28;20048;-73
2023/10/14 11:56:03;;;;;;;;;;;14.20;99.90;;;;;;5038431;28;20049;-73
2023/10/14 11:58:35;;;;;;;0.10;0.10;;;14.30;99.90;;;;;;5035148;28;20011;-73
2023/10/14 12:01:00;;;;;;;0.10;0.10;;;14.50;99.90;;;;;;5050046;28;20036;-74
2023/10/14 12:03:26;;;;;;;0.20;0.20;;;14.70;99.90;;;;;;5037913;28;20048;-74
2023/10/14 12:05:59;;;;;;;0.10;0.10;;;14.70;99.90;;;;;;5038893;28;20102;-74
2023/10/14 12:08:30;;;;;;;0.10;0.10;;;14.70;99.90;;;;;;5040785;28;20401;-73
2023/10/14 12:10:59;;;;;;;0.10;0.10;;;14.70;99.90;;;;;;5033353;28;20052;-73
2023/10/14 12:13:25;;;;;;;0.17;0.17;;;14.70;99.90;;;;;;5056147;28;20131;-73
2023/10/14 12:15:52;;;;;;;0.20;0.20;;;14.90;99.90;;;;;;5041159;28;20045;-73
2023/10/14 12:18:17;;;;;;;0.10;0.10;;;15.10;99.90;;;;;;5046065;28;20507;-76
2023/10/14 12:20:47;;;;;;;0.10;0.10;;;15.30;99.90;;;;;;5042962;28;20044;-73
2023/10/14 12:23:20;;;;;;;0.20;0.20;;;15.50;99.90;;;;;;5037877;28;20036;-76
2023/10/14 12:25:50;;;;;;;0.17;0.17;;;15.70;99.90;;;;;;5043524;28;20045;-74
2023/10/14 12:28:26;;;;;;;0.20;0.20;;;16.00;99.90;;;;;;5036832;28;20431;-75
2023/10/14 12:30:52;;;;;;;0.20;0.20;;;16.40;99.90;;;;;;5033501;28;20544;-73
2023/10/14 12:33:22;;;;;;;0.20;0.20;;;17.50;99.90;;;;;;5041344;28;20081;-74
2023/10/14 12:35:51;;;;;;;0.17;0.17;;;17.60;99.90;;;;;;5041436;28;20045;-75
2023/10/14 12:38:24;;;;;;;0.10;0.10;;;18.60;99.90;;;;;;5039765;28;20119;-74
2023/10/14 12:40:49;;;;;;;0.20;0.20;;;19.90;99.90;;;;;;5046388;28;20048;-73
2023/10/14 12:43:16;;;;;;;0.20;0.20;;;21.30;99.90;;;;;;5040221;28;20036;-73
2023/10/14 12:45:42;;;;;;;0.20;0.20;;;22.60;99.90;;;;;;5046082;28;20050;-74
2023/10/14 12:48:11;;;;;;;0.20;0.20;;;23.80;99.90;;;;;;5063279;28;20539;-74
2023/10/14 12:50:40;;;;;;;0.20;0.20;;;25.00;99.90;;;;;;5049924;28;20041;-73
2023/10/14 12:53:08;;;;;;;0.20;0.20;;;26.10;99.90;;;;;;5045926;28;20500;-74
2023/10/14 12:55:36;;;;;;;0.20;0.20;;;27.20;99.90;;;;;;5048537;28;20370;-74
2023/10/14 12:58:02;;;;;;;0.20;0.20;;;28.30;99.90;;;;;;5040824;28;20071;-74
2023/10/14 13:00:29;;;;;;;0.20;0.20;;;29.40;99.90;;;;;;5041331;28;20040;-73
2023/10/14 13:02:59;;;;;;;0.20;0.20;;;30.10;99.90;;;;;;5040844;28;20540;-74
2023/10/14 13:05:26;;;;;;;0.20;0.20;;;30.60;99.00;;;;;;5037356;28;20488;-74
2023/10/14 13:07:53;;;;;;;0.10;0.10;;;30.00;94.60;;;;;;5059364;28;20040;-74
2023/10/14 13:10:20;;;;;;;0.20;0.20;;;28.50;90.90;;;;;;5040440;28;20044;-73
2023/10/14 13:12:52;;;;;;;0.10;0.10;;;27.00;87.80;;;;;;5045540;28;20048;-74
2023/10/14 13:15:30;;;;;;;0.20;0.20;;;25.30;85.40;;;;;;5039597;28;20041;-73
2023/10/14 13:18:01;;;;;;;0.20;0.20;;;23.60;86.50;;;;;;5046476;28;20048;-73
2023/10/14 13:20:31;;;;;;;0.20;0.20;;;23.40;92.80;;;;;;5046101;28;20041;-74
2023/10/14 13:23:12;;;;;;;0.20;0.20;;;24.40;94.60;;;;;;5058910;28;20117;-71
2023/10/14 13:25:38;;;;;;;0.20;0.20;;;24.60;91.80;;;;;;5044751;28;20135;-75
2023/10/14 13:28:08;;;;;;;0.20;0.20;;;23.80;88.40;;;;;;5041596;28;20041;-71
2023/10/14 13:30:39;;;;;;;0.20;0.20;;;;;;;;;;5041387;28;20044;-71
2023/10/14 13:33:08;;;;;;;0.13;0.13;;;21.70;86.90;;;;;;5047280;28;20110;-71
2023/10/14 13:35:33;;;;;;;0.20;0.20;;;20.50;89.50;;;;;;5035676;28;20868;-71
2023/10/14 13:38:03;;;;;;;0.15;0.15;;;20.50;90.00;;;;;;5057921;28;20033;-71
2023/10/14 13:40:30;;;;;;;0.20;0.20;;;20.00;90.50;;;;;;5040022;28;20056;-71
2023/10/14 13:42:56;;;;;;;0.20;0.20;;;19.70;91.40;;;;;;5040172;28;20048;-71
2023/10/14 13:45:22;;;;;;;0.10;0.10;;;19.60;91.70;;;;;;5048174;28;20049;-71
2023/10/14 13:47:48;;;;;;;0.10;0.10;;;19.40;91.20;;;;;;5063216;28;20120;-71
2023/10/14 13:50:22;;;;;;;0.20;0.20;;;18.90;91.30;;;;;;5042894;28;20051;-71